Rocky Mount, North Carolina
Current Conditions -  °F | °C
As of 11:53 AM on Saturday 25 Oct 2014 (Local Time) from KRWI Reporting Station
Clear Clear  
Wind Chill: 66°   Ceiling: Unl
Heat Index: 66°   Visibility: 10mi
Dew Point: 43°   Wind: 3mph
Humidity: 43%   Direction: 70°ENE
Pressure: 30"   Gusts: NA
Location:  35.95°N, 77.79°W
Report Text: KRWI 251553Z AUTO 07003KT 10SM CLR 19/06 A3000 RMK AO2 SLP157 T01890061
Loading
Personal Weather Stations






























Interactive Weather Map
Tropical Storm Tracking
New forecast layout! Learn more

10-Day Weather Forecast

Advertisements
Track Severe Weather on mobile